createdAt,value
2022-08-25T00:01:15.194Z,21.20
2022-08-25T00:03:53.691Z,21.00
2022-08-25T00:06:34.632Z,20.90
2022-08-25T00:09:11.497Z,20.80
2022-08-25T00:11:48.461Z,20.70
2022-08-25T00:14:21.360Z,20.50
2022-08-25T00:16:52.175Z,20.50
2022-08-25T00:19:32.829Z,20.40
2022-08-25T00:22:24.206Z,20.40
2022-08-25T00:24:52.762Z,20.30
2022-08-25T00:27:29.848Z,20.30
2022-08-25T00:30:01.545Z,20.30
2022-08-25T00:32:36.377Z,20.20
2022-08-25T00:35:13.931Z,20.10
2022-08-25T00:37:49.823Z,20.20
2022-08-25T00:40:18.548Z,20.10
2022-08-25T00:42:56.574Z,20.10
2022-08-25T00:45:33.923Z,20.10
2022-08-25T00:48:06.012Z,20.00
2022-08-25T00:50:39.322Z,20.10
2022-08-25T00:53:26.385Z,20.00
2022-08-25T00:55:57.500Z,19.90
2022-08-25T00:58:31.189Z,19.80
2022-08-25T01:01:04.478Z,19.80
2022-08-25T01:03:35.553Z,19.80
2022-08-25T01:06:06.131Z,19.80
2022-08-25T01:08:35.881Z,19.80
2022-08-25T01:11:06.735Z,19.80
2022-08-25T01:13:39.011Z,19.80
2022-08-25T01:16:07.545Z,19.80
2022-08-25T01:18:54.657Z,19.80
2022-08-25T01:21:32.232Z,19.70
2022-08-25T01:24:06.034Z,19.60
2022-08-25T01:26:50.765Z,19.70
2022-08-25T01:29:29.990Z,19.60
2022-08-25T01:32:12.702Z,19.50
2022-08-25T01:34:46.985Z,19.60
2022-08-25T01:37:19.272Z,19.60
2022-08-25T01:39:53.321Z,19.50
2022-08-25T01:42:39.034Z,19.40
2022-08-25T01:45:10.991Z,19.30
2022-08-25T01:47:44.645Z,19.30
2022-08-25T01:50:16.947Z,19.20
2022-08-25T01:53:02.893Z,19.20
2022-08-25T01:55:54.217Z,19.20
2022-08-25T01:58:32.218Z,19.30
2022-08-25T02:01:17.465Z,19.30
2022-08-25T02:03:52.018Z,19.20
2022-08-25T02:06:27.652Z,19.30
2022-08-25T02:09:16.759Z,19.30
2022-08-25T02:11:57.243Z,19.20
2022-08-25T02:14:28.882Z,19.10
2022-08-25T02:17:00.070Z,19.00
2022-08-25T02:19:33.374Z,19.00
2022-08-25T02:22:02.680Z,19.10
2022-08-25T02:24:35.957Z,19.20
2022-08-25T02:27:06.773Z,19.10
2022-08-25T02:29:36.023Z,19.00
2022-08-25T02:32:09.244Z,18.90
2022-08-25T02:34:41.752Z,18.80
2022-08-25T02:37:10.183Z,18.90
2022-08-25T02:39:50.792Z,18.90
2022-08-25T02:42:19.285Z,18.80
2022-08-25T02:44:49.265Z,18.70
2022-08-25T02:47:20.532Z,18.70
2022-08-25T02:49:58.066Z,18.70
2022-08-25T02:52:27.311Z,18.60
2022-08-25T02:54:57.938Z,18.60
2022-08-25T02:57:26.217Z,18.50
2022-08-25T02:59:54.463Z,18.40
2022-08-25T03:02:22.755Z,18.40
2022-08-25T03:04:53.533Z,18.40
2022-08-25T03:07:23.575Z,18.40
2022-08-25T03:09:54.619Z,18.30
2022-08-25T03:12:32.098Z,18.30
2022-08-25T03:15:02.785Z,18.20
2022-08-25T03:17:31.602Z,18.30
2022-08-25T03:20:05.885Z,18.20
2022-08-25T03:22:34.272Z,18.20
2022-08-25T03:25:24.145Z,18.10
2022-08-25T03:27:58.035Z,18.10
2022-08-25T03:30:29.459Z,18.10
2022-08-25T03:32:58.737Z,18.10
2022-08-25T03:35:30.128Z,18.10
2022-08-25T03:38:03.473Z,18.10
2022-08-25T03:40:31.835Z,18.10
2022-08-25T03:43:04.003Z,18.10
2022-08-25T03:45:33.204Z,18.10
2022-08-25T03:48:03.164Z,18.10
2022-08-25T03:50:34.191Z,18.10
2022-08-25T03:53:04.095Z,18.00
2022-08-25T03:55:32.665Z,18.00
2022-08-25T03:58:04.988Z,18.00
2022-08-25T04:00:35.566Z,18.00
2022-08-25T04:03:05.077Z,17.90
2022-08-25T04:05:36.386Z,18.00
2022-08-25T04:08:07.238Z,18.00
2022-08-25T04:10:35.635Z,17.90
2022-08-25T04:13:05.540Z,17.90
2022-08-25T04:15:37.254Z,17.90
2022-08-25T04:18:07.265Z,17.90
2022-08-25T04:20:35.625Z,17.90
2022-08-25T04:23:03.886Z,17.90
2022-08-25T04:25:32.047Z,17.80
2022-08-25T04:28:05.194Z,17.80
2022-08-25T04:30:33.458Z,17.80
2022-08-25T04:33:05.642Z,17.80
2022-08-25T04:35:33.838Z,17.80
2022-08-25T04:38:04.332Z,17.80
2022-08-25T04:40:34.810Z,17.80
2022-08-25T04:43:05.467Z,17.70
2022-08-25T04:45:37.932Z,17.70
2022-08-25T04:48:09.189Z,17.70
2022-08-25T04:50:40.359Z,17.70
2022-08-25T04:53:17.695Z,17.60
2022-08-25T04:55:51.914Z,17.50
2022-08-25T04:58:23.987Z,17.60
2022-08-25T05:00:54.857Z,17.60
2022-08-25T05:03:25.681Z,17.70
2022-08-25T05:06:12.816Z,17.60
2022-08-25T05:08:45.771Z,17.60
2022-08-25T05:11:21.249Z,17.70
2022-08-25T05:13:57.774Z,17.70
2022-08-25T05:16:29.098Z,17.80
2022-08-25T05:18:58.796Z,17.80
2022-08-25T05:21:29.734Z,17.80
2022-08-25T05:23:59.077Z,17.90
2022-08-25T05:26:31.811Z,18.00
2022-08-25T05:29:05.547Z,18.00
2022-08-25T05:31:41.708Z,18.00
2022-08-25T05:34:14.025Z,18.10
2022-08-25T05:36:43.599Z,18.30
2022-08-25T05:39:12.279Z,18.30
2022-08-25T05:41:42.597Z,18.30
2022-08-25T05:44:19.101Z,18.50
2022-08-25T05:46:56.054Z,18.60
2022-08-25T05:49:24.178Z,18.70
2022-08-25T05:52:06.266Z,18.80
2022-08-25T05:54:35.537Z,18.90
2022-08-25T05:57:05.103Z,19.00
2022-08-25T05:59:37.392Z,19.10
2022-08-25T06:02:38.988Z,19.20
2022-08-25T06:05:08.096Z,19.30
2022-08-25T06:07:37.291Z,19.40
2022-08-25T06:10:06.807Z,19.50
2022-08-25T06:12:36.871Z,19.60
2022-08-25T06:15:09.725Z,19.80
2022-08-25T06:17:40.938Z,19.80
2022-08-25T06:20:11.840Z,20.00
2022-08-25T06:22:41.411Z,20.10
2022-08-25T06:25:17.946Z,20.20
2022-08-25T06:27:47.862Z,20.30
2022-08-25T06:30:24.513Z,20.50
2022-08-25T06:33:04.718Z,20.60
2022-08-25T06:35:34.139Z,20.80
2022-08-25T06:38:03.869Z,20.80
2022-08-25T06:40:32.199Z,21.00
2022-08-25T06:43:04.040Z,21.10
2022-08-25T06:45:36.432Z,21.20
2022-08-25T06:48:06.640Z,21.30
2022-08-25T06:50:35.118Z,21.70
2022-08-25T06:53:13.305Z,21.90
2022-08-25T06:55:42.780Z,22.20
2022-08-25T06:58:14.304Z,22.30
2022-08-25T07:00:46.869Z,22.50
2022-08-25T07:05:53.676Z,22.80
2022-08-25T07:08:22.785Z,23.00
2022-08-25T07:10:53.668Z,23.10
2022-08-25T07:13:26.325Z,23.20
2022-08-25T07:16:00.059Z,23.30
2022-08-25T07:18:32.021Z,23.50
2022-08-25T07:21:05.155Z,23.60
2022-08-25T07:23:38.948Z,23.60
2022-08-25T07:26:36.376Z,23.80
2022-08-25T07:29:03.047Z,23.80
2022-08-25T07:31:34.077Z,23.80
2022-08-25T07:34:26.050Z,24.00
2022-08-25T07:36:55.189Z,24.00
2022-08-25T07:39:24.027Z,24.10
2022-08-25T07:41:54.908Z,24.20
2022-08-25T07:44:25.337Z,24.30
2022-08-25T07:47:01.647Z,24.30
2022-08-25T07:49:36.227Z,24.50
2022-08-25T07:52:25.924Z,24.60
2022-08-25T07:54:55.371Z,24.70
2022-08-25T07:57:26.573Z,24.80
2022-08-25T07:59:54.728Z,24.80
2022-08-25T08:02:24.736Z,24.80
2022-08-25T08:04:54.453Z,24.80
2022-08-25T08:07:42.347Z,25.10
2022-08-25T08:13:07.597Z,25.10
2022-08-25T08:15:38.164Z,24.90
2022-08-25T08:18:12.245Z,24.90
2022-08-25T08:20:46.402Z,25.00
2022-08-25T08:23:14.656Z,25.10
2022-08-25T08:25:46.890Z,25.00
2022-08-25T08:28:17.906Z,25.20
2022-08-25T08:30:53.021Z,25.20
2022-08-25T08:33:34.219Z,25.30
2022-08-25T08:36:15.376Z,25.30
2022-08-25T08:38:45.646Z,25.30
2022-08-25T08:42:09.401Z,25.40
2022-08-25T08:44:50.059Z,25.50
2022-08-25T08:47:30.191Z,25.70
2022-08-25T08:50:10.789Z,25.70
2022-08-25T08:52:55.203Z,25.80
2022-08-25T08:55:32.034Z,26.00
2022-08-25T08:58:12.649Z,26.10
2022-08-25T09:00:46.793Z,26.20
2022-08-25T09:06:23.827Z,26.30
2022-08-25T09:08:59.123Z,26.30
2022-08-25T09:12:05.311Z,26.30
2022-08-25T09:15:03.124Z,26.60
2022-08-25T09:18:12.693Z,26.70
2022-08-25T09:20:53.012Z,26.80
2022-08-25T09:24:11.620Z,26.80
2022-08-25T09:26:49.834Z,26.90
2022-08-25T09:29:26.561Z,27.00
2022-08-25T09:32:01.947Z,27.10
2022-08-25T09:34:33.630Z,27.10
2022-08-25T09:37:03.103Z,26.80
2022-08-25T09:39:36.121Z,27.00
2022-08-25T09:42:06.533Z,27.20
2022-08-25T09:44:43.726Z,27.20
2022-08-25T09:47:27.073Z,27.30
2022-08-25T09:50:04.584Z,27.50
2022-08-25T09:52:37.695Z,27.60
2022-08-25T09:55:33.451Z,27.60
2022-08-25T09:58:06.904Z,27.70
2022-08-25T10:00:38.221Z,27.70
2022-08-25T10:03:12.691Z,27.80
2022-08-25T10:06:01.651Z,27.80
2022-08-25T10:08:34.991Z,27.80
2022-08-25T10:11:09.021Z,27.70
2022-08-25T10:13:41.535Z,27.70
2022-08-25T10:16:24.235Z,27.80
2022-08-25T10:19:06.838Z,28.00
2022-08-25T10:21:37.040Z,28.10
2022-08-25T10:24:06.711Z,28.10
2022-08-25T10:26:56.071Z,28.30
2022-08-25T10:29:44.018Z,28.30
2022-08-25T10:32:19.742Z,28.30
2022-08-25T10:34:51.594Z,28.40
2022-08-25T10:37:35.397Z,28.50
2022-08-25T10:40:17.917Z,28.60
2022-08-25T10:43:08.264Z,28.70
2022-08-25T10:45:43.543Z,28.50
2022-08-25T10:48:36.563Z,28.60
2022-08-25T10:51:18.842Z,28.60
2022-08-25T10:53:57.035Z,28.50
2022-08-25T10:56:30.505Z,28.60
2022-08-25T10:59:18.021Z,28.50
2022-08-25T11:01:59.931Z,28.70
2022-08-25T11:04:34.352Z,28.90
2022-08-25T11:07:10.592Z,28.90
2022-08-25T11:09:44.422Z,28.70
2022-08-25T11:12:17.557Z,28.70
2022-08-25T11:14:53.376Z,28.80
2022-08-25T11:17:26.045Z,29.00
2022-08-25T11:20:00.107Z,29.00
2022-08-25T11:22:34.669Z,29.00
2022-08-25T11:25:12.343Z,28.80
2022-08-25T11:27:53.485Z,28.90
2022-08-25T11:30:23.277Z,29.00
2022-08-25T11:32:55.621Z,29.30
2022-08-25T11:35:30.735Z,29.50
2022-08-25T11:38:15.667Z,29.70
2022-08-25T11:40:59.514Z,29.80
2022-08-25T11:43:46.600Z,30.00
2022-08-25T11:46:35.013Z,30.20
2022-08-25T11:49:23.376Z,30.20
2022-08-25T11:54:41.720Z,30.70
2022-08-25T11:57:19.120Z,30.80
2022-08-25T12:00:17.615Z,30.70
2022-08-25T12:03:00.860Z,30.80
2022-08-25T12:05:54.488Z,30.90
2022-08-25T12:09:16.147Z,30.40
2022-08-25T12:11:52.521Z,30.50
2022-08-25T12:14:48.485Z,30.90
2022-08-25T12:17:39.676Z,30.90
2022-08-25T12:20:10.016Z,31.20
2022-08-25T12:22:51.595Z,31.20
2022-08-25T12:25:38.657Z,31.50
2022-08-25T12:28:16.948Z,31.50
2022-08-25T12:30:53.903Z,31.70
2022-08-25T12:33:32.859Z,31.20
2022-08-25T12:36:04.643Z,30.80
2022-08-25T12:38:43.283Z,30.70
2022-08-25T12:41:20.911Z,30.80
2022-08-25T12:43:58.705Z,31.00
2022-08-25T12:46:43.070Z,30.90
2022-08-25T12:49:37.102Z,30.80
2022-08-25T12:52:22.054Z,30.90
2022-08-25T12:55:00.673Z,31.50
2022-08-25T12:57:41.208Z,31.50
2022-08-25T13:00:21.974Z,31.70
2022-08-25T13:03:12.850Z,31.30
2022-08-25T13:05:58.628Z,31.20
2022-08-25T13:08:59.575Z,31.30
2022-08-25T13:11:35.238Z,31.40
2022-08-25T13:14:20.934Z,31.30
2022-08-25T13:16:56.780Z,31.20
2022-08-25T13:19:34.789Z,31.40
2022-08-25T13:22:16.064Z,31.70
2022-08-25T13:24:53.467Z,32.00
2022-08-25T13:27:26.248Z,32.00
2022-08-25T13:30:03.591Z,31.80
2022-08-25T13:32:36.146Z,31.90
2022-08-25T13:35:21.895Z,32.40
2022-08-25T13:37:49.978Z,32.20
2022-08-25T13:40:27.931Z,32.30
2022-08-25T13:43:01.177Z,32.60
2022-08-25T13:45:40.209Z,32.60
2022-08-25T13:48:20.895Z,32.60
2022-08-25T13:50:53.215Z,33.20
2022-08-25T13:53:25.303Z,33.10
2022-08-25T13:55:57.986Z,32.80
2022-08-25T13:58:38.690Z,32.40
2022-08-25T14:01:22.682Z,33.10
2022-08-25T14:04:14.883Z,33.70
2022-08-25T14:06:43.050Z,34.00
2022-08-25T14:09:16.727Z,33.90
2022-08-25T14:11:49.962Z,33.80
2022-08-25T14:14:33.790Z,33.90
2022-08-25T14:17:16.569Z,34.70
2022-08-25T14:19:50.354Z,34.80
2022-08-25T14:22:18.598Z,35.10
2022-08-25T14:24:46.838Z,35.20
2022-08-25T14:27:16.453Z,35.20
2022-08-25T14:29:45.055Z,35.30
2022-08-25T14:32:14.725Z,35.40
2022-08-25T14:34:43.031Z,35.40
2022-08-25T14:37:15.629Z,35.40
2022-08-25T14:39:44.356Z,35.20
2022-08-25T14:42:13.298Z,35.20
2022-08-25T14:44:42.953Z,35.30
2022-08-25T14:47:11.167Z,35.10
2022-08-25T14:49:43.996Z,35.30
2022-08-25T14:52:19.626Z,34.80
2022-08-25T14:54:50.983Z,35.00
2022-08-25T14:57:20.265Z,35.30
2022-08-25T14:59:51.876Z,35.90
2022-08-25T15:02:22.578Z,36.00
2022-08-25T15:05:00.493Z,36.20
2022-08-25T15:07:48.042Z,36.50
2022-08-25T15:10:16.720Z,35.80
2022-08-25T15:12:47.747Z,36.00
2022-08-25T15:15:17.991Z,35.80
2022-08-25T15:17:50.294Z,36.00
2022-08-25T15:20:19.130Z,36.20
2022-08-25T15:22:48.277Z,36.30
2022-08-25T15:25:18.332Z,36.30
2022-08-25T15:27:46.958Z,36.20
2022-08-25T15:30:17.352Z,36.20
2022-08-25T15:32:48.558Z,36.40
2022-08-25T15:35:17.425Z,37.30
2022-08-25T15:37:48.157Z,37.40
2022-08-25T15:40:16.821Z,38.00
2022-08-25T15:42:45.861Z,41.10
2022-08-25T15:45:14.908Z,45.00
2022-08-25T15:47:45.753Z,48.00
2022-08-25T15:50:16.212Z,49.60
2022-08-25T15:52:46.556Z,50.40
2022-08-25T15:55:16.456Z,51.10
2022-08-25T15:57:44.749Z,52.20
2022-08-25T16:00:16.817Z,54.10
2022-08-25T16:02:47.315Z,54.80
2022-08-25T16:05:16.621Z,55.50
2022-08-25T16:07:51.766Z,55.20
2022-08-25T16:10:20.679Z,53.30
2022-08-25T16:12:50.153Z,49.70
2022-08-25T16:15:18.535Z,48.20
2022-08-25T16:17:53.679Z,47.20
2022-08-25T16:20:23.570Z,45.20
2022-08-25T16:22:51.759Z,44.20
2022-08-25T16:25:20.792Z,44.50
2022-08-25T16:27:57.781Z,44.70
2022-08-25T16:30:28.668Z,43.20
2022-08-25T16:33:01.343Z,41.30
2022-08-25T16:35:45.386Z,39.30
2022-08-25T16:38:24.021Z,37.60
2022-08-25T16:40:56.625Z,36.20
2022-08-25T16:43:28.600Z,35.10
2022-08-25T16:46:13.636Z,34.50
2022-08-25T16:48:50.744Z,34.00
2022-08-25T16:51:25.553Z,33.50
2022-08-25T16:54:15.761Z,33.20
2022-08-25T16:56:50.743Z,32.80
2022-08-25T16:59:28.592Z,32.60
2022-08-25T17:01:57.297Z,32.40
2022-08-25T17:04:32.095Z,32.20
2022-08-25T17:07:02.208Z,32.10
2022-08-25T17:09:33.910Z,31.90
2022-08-25T17:14:49.376Z,31.60
2022-08-25T17:17:17.643Z,31.50
2022-08-25T17:19:53.414Z,31.30
2022-08-25T17:22:26.123Z,31.20
2022-08-25T17:25:00.963Z,30.80
2022-08-25T17:27:31.919Z,30.70
2022-08-25T17:30:02.743Z,30.40
2022-08-25T17:32:32.413Z,30.00
2022-08-25T17:35:20.509Z,29.50
2022-08-25T17:37:50.406Z,29.30
2022-08-25T17:40:18.868Z,29.00
2022-08-25T17:42:47.125Z,28.80
2022-08-25T17:45:15.646Z,28.60
2022-08-25T17:47:43.888Z,28.30
2022-08-25T17:50:12.415Z,28.20
2022-08-25T17:52:42.566Z,28.00
2022-08-25T17:55:12.076Z,27.80
2022-08-25T17:57:41.501Z,27.70
2022-08-25T18:00:12.081Z,27.50
2022-08-25T18:02:43.443Z,27.30
2022-08-25T18:05:13.218Z,27.20
2022-08-25T18:07:43.153Z,27.00
2022-08-25T18:10:13.172Z,26.70
2022-08-25T18:12:41.381Z,26.50
2022-08-25T18:15:12.368Z,26.40
2022-08-25T18:17:42.689Z,26.30
2022-08-25T18:20:15.437Z,26.20
2022-08-25T18:22:45.049Z,25.90
2022-08-25T18:25:15.692Z,25.80
2022-08-25T18:27:45.208Z,25.70
2022-08-25T18:30:13.967Z,25.60
2022-08-25T18:32:42.345Z,25.60
2022-08-25T18:35:11.283Z,25.50
2022-08-25T18:37:56.609Z,25.50
2022-08-25T18:40:27.658Z,25.40
2022-08-25T18:42:58.160Z,25.30
2022-08-25T18:45:31.422Z,25.20
2022-08-25T18:48:00.585Z,25.20
2022-08-25T18:50:33.324Z,25.20
2022-08-25T18:53:02.011Z,25.10
2022-08-25T18:55:31.840Z,25.10
2022-08-25T18:58:00.539Z,24.90
2022-08-25T19:00:31.903Z,24.80
2022-08-25T19:03:01.712Z,24.80
2022-08-25T19:05:33.068Z,24.90
2022-08-25T19:08:02.305Z,24.80
2022-08-25T19:10:38.788Z,24.70
2022-08-25T19:13:14.678Z,24.70
2022-08-25T19:15:50.871Z,24.60
2022-08-25T19:18:26.100Z,24.60
2022-08-25T19:21:06.583Z,24.50
2022-08-25T19:23:40.136Z,24.50
2022-08-25T19:26:13.984Z,24.40
2022-08-25T19:28:49.058Z,24.30
2022-08-25T19:31:27.558Z,24.20
2022-08-25T19:34:03.943Z,24.20
2022-08-25T19:36:32.499Z,24.20
2022-08-25T19:39:03.683Z,24.10
2022-08-25T19:41:34.691Z,24.00
2022-08-25T19:44:04.766Z,24.00
2022-08-25T19:46:38.337Z,23.90
2022-08-25T19:49:10.174Z,23.80
2022-08-25T19:51:39.867Z,23.80
2022-08-25T19:54:10.137Z,23.80
2022-08-25T19:56:53.998Z,23.90
2022-08-25T19:59:34.288Z,24.00
2022-08-25T20:02:16.656Z,23.90
2022-08-25T20:04:56.367Z,23.80
2022-08-25T20:07:31.645Z,23.80
2022-08-25T20:10:03.976Z,23.80
2022-08-25T20:12:40.370Z,23.80
2022-08-25T20:15:10.878Z,23.70
2022-08-25T20:17:41.712Z,23.60
2022-08-25T20:20:12.973Z,23.50
2022-08-25T20:22:41.489Z,23.60
2022-08-25T20:25:13.050Z,23.50
2022-08-25T20:27:46.220Z,23.40
2022-08-25T20:30:17.921Z,23.40
2022-08-25T20:32:46.424Z,23.40
2022-08-25T20:35:16.522Z,23.20
2022-08-25T20:37:46.328Z,23.20
2022-08-25T20:40:18.320Z,23.10
2022-08-25T20:42:55.131Z,23.00
2022-08-25T20:45:24.244Z,22.90
2022-08-25T20:47:53.044Z,22.90
2022-08-25T20:50:22.964Z,22.80
2022-08-25T20:52:52.422Z,22.80
2022-08-25T20:55:21.771Z,22.80
2022-08-25T20:57:50.207Z,22.80
2022-08-25T21:00:23.637Z,22.70
2022-08-25T21:02:54.178Z,22.70
2022-08-25T21:05:22.575Z,22.70
2022-08-25T21:07:51.207Z,22.70
2022-08-25T21:10:19.722Z,22.80
2022-08-25T21:12:49.409Z,22.70
2022-08-25T21:15:23.466Z,22.60
2022-08-25T21:18:00.261Z,22.50
2022-08-25T21:20:30.231Z,22.40
2022-08-25T21:22:58.526Z,22.30
2022-08-25T21:25:27.187Z,22.30
2022-08-25T21:27:55.427Z,22.30
2022-08-25T21:30:27.636Z,22.10
2022-08-25T21:32:56.823Z,22.20
2022-08-25T21:35:26.829Z,22.10
2022-08-25T21:37:55.162Z,22.00
2022-08-25T21:40:24.194Z,21.90
2022-08-25T21:42:52.600Z,21.80
2022-08-25T21:45:21.869Z,21.80
2022-08-25T21:47:51.764Z,21.90
2022-08-25T21:50:21.226Z,21.90
2022-08-25T21:52:54.431Z,21.90
2022-08-25T21:55:42.205Z,21.90
2022-08-25T22:00:54.206Z,21.80
2022-08-25T22:03:26.526Z,21.80
2022-08-25T22:05:57.811Z,21.70
2022-08-25T22:08:30.934Z,21.60
2022-08-25T22:11:00.409Z,21.60
2022-08-25T22:13:29.645Z,21.50
2022-08-25T22:15:58.812Z,21.50
2022-08-25T22:18:30.004Z,21.40
2022-08-25T22:20:59.512Z,21.30
2022-08-25T22:23:44.046Z,21.30
2022-08-25T22:26:15.319Z,21.30
2022-08-25T22:28:44.176Z,21.30
2022-08-25T22:31:20.578Z,21.20
2022-08-25T22:33:51.883Z,21.10
2022-08-25T22:36:24.477Z,21.10
2022-08-25T22:38:54.021Z,21.00
2022-08-25T22:41:23.985Z,20.90
2022-08-25T22:43:54.074Z,20.90
2022-08-25T22:46:23.868Z,20.90
2022-08-25T22:48:53.564Z,20.90
2022-08-25T22:51:24.465Z,20.80
2022-08-25T22:53:52.984Z,20.80
2022-08-25T22:56:30.859Z,20.80
2022-08-25T22:59:00.463Z,20.80
2022-08-25T23:01:29.413Z,20.70
2022-08-25T23:03:59.770Z,20.70
2022-08-25T23:06:28.051Z,20.60
2022-08-25T23:08:56.953Z,20.50
2022-08-25T23:11:26.259Z,20.50
2022-08-25T23:14:00.331Z,20.50
2022-08-25T23:16:28.640Z,20.40
2022-08-25T23:18:58.929Z,20.40
2022-08-25T23:21:44.566Z,20.30
2022-08-25T23:24:14.178Z,20.30
2022-08-25T23:26:57.700Z,20.30
2022-08-25T23:29:27.838Z,20.30
2022-08-25T23:31:56.644Z,20.30
2022-08-25T23:34:27.587Z,20.30
2022-08-25T23:36:57.094Z,20.30
2022-08-25T23:39:25.764Z,20.20
2022-08-25T23:41:54.081Z,20.10
2022-08-25T23:44:25.570Z,20.20
2022-08-25T23:46:53.916Z,20.10
2022-08-25T23:49:24.115Z,20.10
2022-08-25T23:51:56.170Z,20.10
2022-08-25T23:54:31.167Z,20.10
2022-08-25T23:57:00.360Z,20.00
2022-08-25T23:59:32.637Z,20.00
